createdAt,value
2023-01-06T00:00:41.584Z,0.73
2023-01-06T00:03:09.718Z,0.60
2023-01-06T00:05:36.472Z,0.80
2023-01-06T00:10:29.957Z,0.40
2023-01-06T00:15:23.330Z,0.70
2023-01-06T00:20:16.742Z,0.60
2023-01-06T00:22:43.601Z,0.40
2023-01-06T00:25:11.050Z,0.40
2023-01-06T00:27:39.393Z,0.55
2023-01-06T00:30:07.586Z,0.50
2023-01-06T00:32:34.800Z,0.57
2023-01-06T00:35:01.677Z,0.50
2023-01-06T00:37:28.460Z,0.68
2023-01-06T00:42:22.528Z,0.55
2023-01-06T00:44:49.627Z,0.57
2023-01-06T00:47:16.687Z,0.40
2023-01-06T00:49:43.548Z,0.45
2023-01-06T00:54:37.403Z,0.40
2023-01-06T00:57:06.834Z,0.50
2023-01-06T00:59:33.926Z,0.50
2023-01-06T01:02:02.997Z,0.63
2023-01-06T01:04:30.225Z,0.40
2023-01-06T01:09:28.155Z,0.50
2023-01-06T01:12:11.608Z,0.50
2023-01-06T01:14:43.509Z,0.50
2023-01-06T01:17:12.151Z,1.13
2023-01-06T01:19:39.892Z,0.52
2023-01-06T01:22:07.375Z,0.50
2023-01-06T01:24:37.230Z,0.43
2023-01-06T01:27:05.370Z,0.70
2023-01-06T01:29:32.412Z,0.43
2023-01-06T01:31:59.455Z,0.40
2023-01-06T01:34:27.708Z,0.50
2023-01-06T01:39:24.228Z,0.52
2023-01-06T01:41:52.148Z,0.47
2023-01-06T01:44:58.723Z,0.50
2023-01-06T01:47:32.341Z,0.40
2023-01-06T01:50:07.784Z,0.57
2023-01-06T01:52:35.698Z,0.35
2023-01-06T01:55:03.986Z,0.52
2023-01-06T01:57:45.082Z,0.60
2023-01-06T02:00:12.157Z,0.50
2023-01-06T02:02:42.870Z,0.45
2023-01-06T02:05:14.241Z,0.35
2023-01-06T02:07:41.390Z,0.40
2023-01-06T02:10:12.950Z,0.40
2023-01-06T02:12:41.648Z,1.20
2023-01-06T02:15:23.944Z,0.32
2023-01-06T02:18:07.878Z,0.40
2023-01-06T02:21:13.733Z,0.40
2023-01-06T02:23:57.083Z,0.38
2023-01-06T02:26:33.502Z,0.60
2023-01-06T02:29:21.201Z,0.52
2023-01-06T02:32:10.692Z,0.35
2023-01-06T02:34:44.012Z,0.40
2023-01-06T02:37:28.375Z,0.40
2023-01-06T02:40:04.189Z,0.22
2023-01-06T02:43:09.023Z,0.47
2023-01-06T02:46:02.311Z,0.43
2023-01-06T02:48:42.653Z,0.55
2023-01-06T02:51:09.283Z,0.55
2023-01-06T02:56:04.057Z,0.70
2023-01-06T02:58:40.774Z,0.80
2023-01-06T03:01:40.782Z,0.70
2023-01-06T03:04:11.729Z,0.70
2023-01-06T03:06:44.773Z,0.65
2023-01-06T03:09:18.448Z,0.35
2023-01-06T03:11:50.468Z,0.80
2023-01-06T03:14:30.667Z,0.50
2023-01-06T03:16:57.954Z,0.50
2023-01-06T03:21:53.989Z,0.68
2023-01-06T03:24:22.881Z,0.47
2023-01-06T03:26:52.257Z,0.40
2023-01-06T03:29:19.123Z,0.50
2023-01-06T03:31:49.444Z,0.50
2023-01-06T03:34:22.513Z,0.73
2023-01-06T03:37:19.212Z,0.50
2023-01-06T03:40:10.409Z,0.52
2023-01-06T03:43:09.254Z,1.55
2023-01-06T03:45:56.337Z,0.75
2023-01-06T03:48:38.083Z,0.65
2023-01-06T03:51:25.709Z,0.50
2023-01-06T03:53:58.569Z,0.60
2023-01-06T03:56:51.273Z,0.40
2023-01-06T03:59:23.419Z,0.40
2023-01-06T04:01:51.890Z,0.70
2023-01-06T04:04:20.878Z,0.45
2023-01-06T04:06:48.524Z,0.57
2023-01-06T04:09:16.317Z,0.50
2023-01-06T04:12:02.684Z,0.30
2023-01-06T04:14:31.423Z,0.60
2023-01-06T04:17:00.519Z,0.52
2023-01-06T04:19:28.067Z,0.50
2023-01-06T04:24:23.515Z,0.40
2023-01-06T04:26:50.321Z,0.50
2023-01-06T04:29:17.261Z,0.30
2023-01-06T04:31:44.411Z,0.63
2023-01-06T04:34:11.335Z,0.90
2023-01-06T04:36:38.236Z,0.52
2023-01-06T04:39:06.167Z,0.45
2023-01-06T04:43:59.616Z,0.70
2023-01-06T04:48:52.998Z,0.60
2023-01-06T04:51:19.889Z,0.70
2023-01-06T04:56:13.978Z,0.68
2023-01-06T05:01:10.251Z,0.50
2023-01-06T05:03:38.205Z,0.60
2023-01-06T05:06:10.570Z,0.60
2023-01-06T05:08:41.690Z,0.77
2023-01-06T05:11:12.163Z,0.60
2023-01-06T05:13:39.445Z,0.50
2023-01-06T05:16:16.341Z,0.60
2023-01-06T05:18:43.381Z,0.60
2023-01-06T05:21:10.668Z,0.57
2023-01-06T05:23:38.253Z,0.80
2023-01-06T05:26:05.932Z,0.47
2023-01-06T05:28:33.023Z,0.40
2023-01-06T05:31:04.511Z,0.70
2023-01-06T05:33:32.851Z,0.52
2023-01-06T05:36:01.192Z,0.60
2023-01-06T05:38:28.326Z,0.60
2023-01-06T05:40:56.725Z,0.63
2023-01-06T05:43:24.660Z,0.60
2023-01-06T05:45:52.269Z,0.50
2023-01-06T05:48:19.675Z,0.75
2023-01-06T05:50:46.399Z,0.77
2023-01-06T05:55:39.744Z,0.68
2023-01-06T05:58:06.596Z,0.88
2023-01-06T06:00:33.226Z,0.90
2023-01-06T06:03:00.083Z,1.13
2023-01-06T06:05:26.882Z,1.42
2023-01-06T06:10:22.321Z,1.10
2023-01-06T06:12:50.679Z,1.20
2023-01-06T06:15:17.515Z,1.10
2023-01-06T06:20:10.946Z,1.15
2023-01-06T06:25:05.610Z,1.20
2023-01-06T06:27:32.513Z,0.93
2023-01-06T06:29:59.288Z,1.05
2023-01-06T06:34:52.735Z,0.90
2023-01-06T06:39:46.317Z,0.82
2023-01-06T06:44:39.643Z,1.02
2023-01-06T06:47:06.308Z,1.33
2023-01-06T06:51:59.711Z,1.05
2023-01-06T06:56:53.091Z,0.90
2023-01-06T07:01:46.859Z,1.30
2023-01-06T07:04:13.665Z,1.40
2023-01-06T07:09:07.241Z,1.48
2023-01-06T07:11:34.107Z,1.42
2023-01-06T07:14:00.913Z,1.00
2023-01-06T07:18:54.409Z,1.20
2023-01-06T07:21:21.103Z,1.30
2023-01-06T07:26:15.618Z,1.02
2023-01-06T07:28:42.361Z,1.38
2023-01-06T07:32:01.224Z,1.10
2023-01-06T07:34:27.968Z,1.02
2023-01-06T07:39:21.344Z,1.17
2023-01-06T07:41:48.288Z,1.55
2023-01-06T07:44:17.883Z,1.52
2023-01-06T07:46:44.787Z,1.70
2023-01-06T07:51:38.042Z,1.70
2023-01-06T07:54:04.774Z,1.70
2023-01-06T07:58:58.023Z,1.35
2023-01-06T08:03:51.579Z,1.83
2023-01-06T08:06:18.444Z,1.75
2023-01-06T08:11:14.199Z,1.52
2023-01-06T08:13:40.923Z,1.80
2023-01-06T08:18:36.150Z,1.70
2023-01-06T08:21:04.973Z,1.50
2023-01-06T08:23:31.839Z,2.00
2023-01-06T08:26:17.690Z,2.15
2023-01-06T08:28:46.170Z,1.98
2023-01-06T08:31:18.977Z,1.60
2023-01-06T08:33:46.207Z,1.50
2023-01-06T08:36:15.814Z,1.70
2023-01-06T08:38:43.219Z,1.67
2023-01-06T08:41:10.969Z,2.40
2023-01-06T08:43:39.552Z,2.50
2023-01-06T08:46:10.613Z,2.05
2023-01-06T08:48:37.743Z,2.03
2023-01-06T08:51:13.089Z,2.40
2023-01-06T08:53:40.250Z,2.10
2023-01-06T08:56:15.609Z,2.13
2023-01-06T08:58:42.742Z,2.40
2023-01-06T09:01:18.040Z,2.15
2023-01-06T09:03:44.803Z,2.63
2023-01-06T09:08:38.795Z,2.50
2023-01-06T09:11:10.061Z,2.67
2023-01-06T09:13:37.335Z,2.63
2023-01-06T09:16:08.335Z,3.08
2023-01-06T09:18:35.596Z,2.60
2023-01-06T09:21:03.000Z,2.60
2023-01-06T09:23:30.798Z,2.50
2023-01-06T09:25:58.110Z,2.50
2023-01-06T09:28:25.712Z,3.63
2023-01-06T09:30:52.808Z,3.10
2023-01-06T09:33:19.624Z,2.65
2023-01-06T09:38:14.540Z,2.93
2023-01-06T09:40:51.361Z,3.10
2023-01-06T09:43:27.143Z,2.97
2023-01-06T09:46:01.041Z,2.65
2023-01-06T09:48:35.351Z,3.08
2023-01-06T09:51:05.373Z,2.80
2023-01-06T09:54:00.486Z,2.92
2023-01-06T09:56:27.503Z,3.10
2023-01-06T09:59:08.981Z,2.90
2023-01-06T10:01:42.594Z,3.30
2023-01-06T10:04:26.294Z,3.40
2023-01-06T10:07:20.446Z,3.25
2023-01-06T10:10:10.492Z,3.10
2023-01-06T10:13:14.295Z,3.10
2023-01-06T10:15:51.870Z,3.90
2023-01-06T10:18:41.959Z,3.78
2023-01-06T10:21:29.770Z,5.22
2023-01-06T10:24:41.715Z,5.32
2023-01-06T10:27:24.997Z,5.28
2023-01-06T10:29:54.551Z,5.25
2023-01-06T10:32:22.308Z,4.55
2023-01-06T10:34:50.908Z,4.88
2023-01-06T10:37:21.010Z,4.65
2023-01-06T10:39:55.684Z,4.28
2023-01-06T10:42:55.442Z,4.38
2023-01-06T10:45:31.459Z,4.13
2023-01-06T10:48:00.581Z,4.32
2023-01-06T10:50:27.795Z,4.15
2023-01-06T10:52:54.786Z,4.70
2023-01-06T10:55:27.425Z,4.70
2023-01-06T10:57:59.946Z,4.47
2023-01-06T11:00:27.099Z,4.45
2023-01-06T11:03:14.243Z,4.35
2023-01-06T11:06:00.500Z,4.30
2023-01-06T11:08:28.625Z,4.43
2023-01-06T11:10:58.556Z,4.90
2023-01-06T11:13:34.676Z,3.53
2023-01-06T11:16:34.107Z,3.80
2023-01-06T11:19:04.767Z,3.25
2023-01-06T11:21:46.786Z,3.20
2023-01-06T11:24:21.515Z,3.20
2023-01-06T11:27:16.148Z,2.65
2023-01-06T11:29:42.873Z,2.63
2023-01-06T11:32:28.016Z,2.65
2023-01-06T11:34:57.706Z,3.28
2023-01-06T11:37:34.498Z,2.38
2023-01-06T11:40:17.520Z,2.90
2023-01-06T11:42:48.795Z,2.33
2023-01-06T11:45:39.269Z,2.78
2023-01-06T11:48:20.277Z,2.42
2023-01-06T11:50:51.936Z,2.15
2023-01-06T11:53:19.549Z,2.25
2023-01-06T11:56:21.389Z,2.10
2023-01-06T11:59:10.622Z,2.03
2023-01-06T12:01:52.582Z,2.10
2023-01-06T12:04:42.037Z,2.55
2023-01-06T12:07:34.167Z,2.70
2023-01-06T12:10:06.835Z,1.77
2023-01-06T12:12:33.735Z,1.60
2023-01-06T12:15:01.967Z,1.80
2023-01-06T12:17:38.944Z,2.05
2023-01-06T12:20:20.607Z,2.20
2023-01-06T12:23:00.378Z,1.98
2023-01-06T12:25:30.152Z,2.20
2023-01-06T12:28:04.488Z,2.25
2023-01-06T12:31:00.627Z,2.80
2023-01-06T12:33:44.519Z,3.35
2023-01-06T12:36:34.684Z,2.63
2023-01-06T12:39:13.412Z,2.40
2023-01-06T12:41:55.548Z,2.63
2023-01-06T12:44:22.171Z,2.60
2023-01-06T12:47:05.982Z,2.95
2023-01-06T12:50:00.465Z,2.40
2023-01-06T12:52:31.233Z,2.80
2023-01-06T12:55:00.095Z,2.40
2023-01-06T12:57:42.219Z,2.40
2023-01-06T13:00:31.345Z,2.63
2023-01-06T13:03:22.270Z,2.72
2023-01-06T13:06:01.315Z,2.50
2023-01-06T13:09:17.414Z,2.45
2023-01-06T13:12:08.031Z,2.70
2023-01-06T13:14:58.096Z,2.67
2023-01-06T13:17:34.295Z,4.68
2023-01-06T13:20:02.910Z,3.70
2023-01-06T13:22:49.863Z,3.15
2023-01-06T13:25:16.627Z,2.90
2023-01-06T13:30:28.261Z,2.85
2023-01-06T13:33:31.486Z,4.68
2023-01-06T13:36:18.339Z,3.63
2023-01-06T13:39:03.882Z,2.50
2023-01-06T13:41:35.129Z,4.07
2023-01-06T13:44:03.832Z,3.13
2023-01-06T13:46:31.937Z,5.55
2023-01-06T13:49:02.355Z,3.80
2023-01-06T13:51:33.196Z,3.33
2023-01-06T13:54:01.455Z,4.45
2023-01-06T13:56:31.189Z,2.58
2023-01-06T13:59:21.637Z,2.53
2023-01-06T14:01:49.091Z,1.67
2023-01-06T14:04:45.187Z,1.90
2023-01-06T14:07:12.510Z,1.92
2023-01-06T14:09:47.418Z,2.03
2023-01-06T14:12:21.850Z,2.33
2023-01-06T14:14:57.636Z,1.80
2023-01-06T14:17:37.977Z,2.13
2023-01-06T14:20:06.427Z,2.05
2023-01-06T14:22:33.974Z,1.92
2023-01-06T14:25:06.451Z,2.00
2023-01-06T14:27:48.238Z,1.90
2023-01-06T14:30:24.976Z,1.58
2023-01-06T14:32:51.730Z,1.80
2023-01-06T14:35:26.114Z,1.30
2023-01-06T14:38:06.810Z,1.52
2023-01-06T14:40:38.324Z,1.83
2023-01-06T14:43:29.298Z,1.50
2023-01-06T14:46:01.950Z,1.23
2023-01-06T14:48:32.852Z,1.70
2023-01-06T14:50:59.825Z,1.10
2023-01-06T14:53:38.920Z,1.58
2023-01-06T14:56:07.220Z,1.40
2023-01-06T14:58:36.829Z,1.67
2023-01-06T15:01:05.737Z,1.35
2023-01-06T15:03:33.563Z,1.45
2023-01-06T15:06:32.865Z,1.85
2023-01-06T15:09:19.394Z,2.85
2023-01-06T15:11:46.469Z,1.75
2023-01-06T15:14:27.523Z,1.40
2023-01-06T15:16:57.256Z,1.80
2023-01-06T15:19:25.191Z,3.25
2023-01-06T15:21:53.061Z,1.73
2023-01-06T15:24:26.065Z,1.40
2023-01-06T15:26:54.890Z,2.20
2023-01-06T15:29:24.605Z,1.88
2023-01-06T15:31:53.723Z,1.80
2023-01-06T15:34:22.114Z,1.90
2023-01-06T15:36:52.119Z,1.88
2023-01-06T15:39:32.448Z,3.42
2023-01-06T15:42:00.365Z,4.00
2023-01-06T15:44:28.961Z,2.28
2023-01-06T15:47:05.715Z,1.73
2023-01-06T15:49:36.086Z,1.33
2023-01-06T15:52:25.303Z,1.60
2023-01-06T15:54:53.999Z,1.95
2023-01-06T15:57:21.164Z,1.63
2023-01-06T16:00:01.542Z,2.00
2023-01-06T16:02:32.767Z,32.28
2023-01-06T16:05:00.616Z,4.05
2023-01-06T16:07:36.134Z,5.75
2023-01-06T16:10:03.344Z,4.05
2023-01-06T16:12:30.057Z,2.97
2023-01-06T16:14:56.790Z,2.90
2023-01-06T16:20:20.741Z,2.22
2023-01-06T16:22:54.359Z,2.97
2023-01-06T16:25:21.004Z,1.95
2023-01-06T16:27:49.822Z,1.90
2023-01-06T16:30:21.779Z,2.78
2023-01-06T16:32:50.114Z,2.70
2023-01-06T16:35:21.507Z,2.28
2023-01-06T16:37:48.659Z,2.05
2023-01-06T16:40:17.337Z,1.58
2023-01-06T16:42:44.801Z,1.65
2023-01-06T16:45:32.001Z,1.80
2023-01-06T16:47:59.127Z,2.40
2023-01-06T16:50:38.200Z,3.10
2023-01-06T16:53:10.655Z,3.78
2023-01-06T16:55:38.842Z,4.53
2023-01-06T16:58:14.876Z,4.82
2023-01-06T17:00:43.977Z,3.00
2023-01-06T17:03:16.917Z,4.05
2023-01-06T17:05:44.080Z,2.47
2023-01-06T17:08:32.621Z,2.65
2023-01-06T17:11:01.399Z,2.70
2023-01-06T17:13:35.199Z,2.10
2023-01-06T17:16:11.794Z,2.72
2023-01-06T17:18:51.356Z,2.28
2023-01-06T17:21:42.673Z,2.40
2023-01-06T17:24:23.375Z,3.42
2023-01-06T17:26:59.997Z,5.63
2023-01-06T17:29:30.402Z,3.10
2023-01-06T17:32:02.259Z,2.15
2023-01-06T17:34:33.430Z,3.10
2023-01-06T17:37:15.743Z,2.58
2023-01-06T17:39:45.367Z,2.35
2023-01-06T17:42:12.044Z,2.63
2023-01-06T17:44:42.029Z,2.80
2023-01-06T17:47:17.711Z,1.95
2023-01-06T17:49:49.773Z,2.33
2023-01-06T17:52:21.888Z,2.55
2023-01-06T17:55:10.463Z,2.20
2023-01-06T17:57:39.618Z,3.67
2023-01-06T18:00:22.001Z,3.50
2023-01-06T18:03:03.671Z,4.47
2023-01-06T18:05:33.390Z,5.30
2023-01-06T18:08:05.941Z,6.10
2023-01-06T18:10:34.525Z,4.55
2023-01-06T18:13:16.648Z,4.63
2023-01-06T18:15:47.909Z,4.40
2023-01-06T18:18:24.621Z,6.10
2023-01-06T18:20:58.635Z,7.03
2023-01-06T18:23:27.265Z,8.57
2023-01-06T18:26:00.619Z,8.07
2023-01-06T18:28:29.578Z,6.35
2023-01-06T18:30:58.512Z,6.38
2023-01-06T18:33:26.046Z,6.35
2023-01-06T18:35:57.184Z,5.10
2023-01-06T18:38:29.839Z,4.32
2023-01-06T18:40:56.597Z,5.25
2023-01-06T18:45:57.662Z,3.75
2023-01-06T18:48:27.536Z,4.07
2023-01-06T18:50:57.052Z,3.17
2023-01-06T18:53:43.592Z,4.05
2023-01-06T18:56:24.820Z,4.03
2023-01-06T18:58:57.351Z,3.83
2023-01-06T19:01:49.697Z,3.60
2023-01-06T19:04:22.499Z,3.45
2023-01-06T19:07:25.005Z,3.03
2023-01-06T19:09:52.025Z,3.45
2023-01-06T19:12:30.079Z,3.30
2023-01-06T19:15:08.724Z,3.15
2023-01-06T19:17:40.063Z,4.60
2023-01-06T19:20:23.023Z,4.22
2023-01-06T19:22:49.986Z,3.83
2023-01-06T19:25:34.809Z,4.30
2023-01-06T19:28:23.767Z,4.78
2023-01-06T19:30:53.456Z,6.28
2023-01-06T19:33:38.422Z,4.57
2023-01-06T19:36:05.083Z,5.20
2023-01-06T19:38:35.414Z,5.03
2023-01-06T19:41:08.692Z,5.63
2023-01-06T19:43:36.159Z,4.80
2023-01-06T19:46:23.688Z,4.20
2023-01-06T19:48:51.114Z,4.18
2023-01-06T19:51:20.839Z,4.45
2023-01-06T19:54:04.484Z,4.00
2023-01-06T19:56:37.102Z,5.40
2023-01-06T19:59:16.942Z,4.78
2023-01-06T20:01:45.294Z,5.18
2023-01-06T20:04:30.397Z,4.40
2023-01-06T20:06:57.141Z,6.05
2023-01-06T20:09:23.828Z,5.20
2023-01-06T20:14:18.851Z,5.30
2023-01-06T20:16:46.110Z,4.53
2023-01-06T20:19:13.065Z,4.53
2023-01-06T20:24:10.897Z,5.43
2023-01-06T20:26:37.772Z,7.00
2023-01-06T20:31:31.661Z,5.75
2023-01-06T20:33:58.642Z,5.43
2023-01-06T20:36:25.455Z,5.70
2023-01-06T20:41:19.025Z,5.05
2023-01-06T20:46:13.359Z,4.70
2023-01-06T20:48:40.472Z,4.75
2023-01-06T20:51:07.541Z,4.72
2023-01-06T20:53:34.257Z,4.90
2023-01-06T20:56:00.924Z,5.65
2023-01-06T21:00:54.341Z,6.07
2023-01-06T21:05:47.630Z,6.60
2023-01-06T21:08:14.352Z,6.47
2023-01-06T21:13:07.941Z,5.20
2023-01-06T21:15:34.630Z,6.88
2023-01-06T21:18:01.357Z,7.25
2023-01-06T21:22:54.672Z,9.25
2023-01-06T21:25:21.364Z,7.85
2023-01-06T21:30:16.863Z,6.85
2023-01-06T21:32:43.770Z,8.43
2023-01-06T21:35:10.683Z,8.18
2023-01-06T21:37:37.401Z,9.23
2023-01-06T21:42:54.082Z,8.90
2023-01-06T21:45:20.874Z,7.38
2023-01-06T21:50:14.164Z,7.88
2023-01-06T21:55:08.196Z,7.03
2023-01-06T21:57:36.014Z,7.32
2023-01-06T22:00:08.033Z,6.95
2023-01-06T22:02:40.169Z,6.30
2023-01-06T22:05:07.621Z,5.68
2023-01-06T22:07:35.751Z,5.45
2023-01-06T22:10:05.848Z,6.28
2023-01-06T22:12:33.672Z,6.10
2023-01-06T22:15:01.141Z,5.53
2023-01-06T22:17:27.935Z,6.55
2023-01-06T22:22:22.568Z,7.20
2023-01-06T22:24:51.858Z,5.82
2023-01-06T22:27:18.576Z,5.82
2023-01-06T22:29:45.356Z,5.75
2023-01-06T22:34:38.710Z,6.07
2023-01-06T22:39:32.218Z,8.80
2023-01-06T22:42:00.164Z,7.22
2023-01-06T22:44:26.986Z,7.18
2023-01-06T22:49:20.309Z,8.93
2023-01-06T22:51:46.979Z,7.72
2023-01-06T22:56:41.805Z,11.82
2023-01-06T22:59:08.947Z,8.98
2023-01-06T23:01:35.709Z,11.23
2023-01-06T23:06:30.461Z,8.75
2023-01-06T23:09:00.674Z,10.15
2023-01-06T23:11:29.730Z,10.30
2023-01-06T23:13:57.875Z,12.18
2023-01-06T23:16:26.351Z,9.88
2023-01-06T23:18:53.792Z,9.02
2023-01-06T23:21:22.821Z,10.25
2023-01-06T23:23:50.812Z,10.20
2023-01-06T23:26:20.012Z,9.85
2023-01-06T23:28:46.807Z,12.77
2023-01-06T23:33:44.032Z,10.32
2023-01-06T23:36:12.960Z,9.02
2023-01-06T23:38:39.929Z,10.30
2023-01-06T23:41:21.835Z,10.02
2023-01-06T23:43:49.293Z,16.13
2023-01-06T23:46:21.528Z,10.80
2023-01-06T23:48:49.154Z,12.98
2023-01-06T23:51:16.471Z,10.95
2023-01-06T23:53:43.513Z,10.60
2023-01-06T23:56:16.220Z,10.30
2023-01-06T23:58:45.611Z,10.10
